sensor_id;sensor_type;location;lat;lon;timestamp;pressure;altitude;pressure_sealevel;temperature;humidity
9521;BME280;4798;41.574;23.734;2024-02-21T00:00:01;95996.78;;;7.73;84.20
9521;BME280;4798;41.574;23.734;2024-02-21T00:02:29;95993.66;;;7.36;85.10
9521;BME280;4798;41.574;23.734;2024-02-21T00:04:58;95963.78;;;6.96;87.59
9521;BME280;4798;41.574;23.734;2024-02-21T00:07:27;95982.94;;;7.66;84.06
9521;BME280;4798;41.574;23.734;2024-02-21T00:09:56;95974.88;;;7.33;85.19
9521;BME280;4798;41.574;23.734;2024-02-21T00:12:24;95959.41;;;7.25;86.55
9521;BME280;4798;41.574;23.734;2024-02-21T00:14:53;95960.81;;;7.16;88.01
9521;BME280;4798;41.574;23.734;2024-02-21T00:17:23;95903.03;;;7.26;84.52
9521;BME280;4798;41.574;23.734;2024-02-21T00:19:53;95960.94;;;7.89;80.96
9521;BME280;4798;41.574;23.734;2024-02-21T00:22:22;95955.56;;;8.12;78.69
9521;BME280;4798;41.574;23.734;2024-02-21T00:24:50;95955.06;;;8.15;77.95
9521;BME280;4798;41.574;23.734;2024-02-21T00:27:19;95935.53;;;8.16;78.43
9521;BME280;4798;41.574;23.734;2024-02-21T00:29:48;95950.50;;;8.10;78.42
9521;BME280;4798;41.574;23.734;2024-02-21T00:32:16;95949.69;;;8.10;77.69
9521;BME280;4798;41.574;23.734;2024-02-21T00:34:46;95932.66;;;8.01;76.83
9521;BME280;4798;41.574;23.734;2024-02-21T00:37:15;95957.13;;;7.68;77.58
9521;BME280;4798;41.574;23.734;2024-02-21T00:39:44;95953.00;;;7.60;81.80
9521;BME280;4798;41.574;23.734;2024-02-21T00:42:12;95955.81;;;7.42;83.10
9521;BME280;4798;41.574;23.734;2024-02-21T00:44:41;95960.69;;;7.22;83.74
9521;BME280;4798;41.574;23.734;2024-02-21T00:47:10;95970.13;;;7.46;83.58
9521;BME280;4798;41.574;23.734;2024-02-21T00:49:39;95972.97;;;7.56;79.25
9521;BME280;4798;41.574;23.734;2024-02-21T00:52:09;95959.41;;;7.64;77.57
9521;BME280;4798;41.574;23.734;2024-02-21T00:54:37;95979.50;;;7.65;79.16
9521;BME280;4798;41.574;23.734;2024-02-21T00:57:19;95979.53;;;7.82;77.29
9521;BME280;4798;41.574;23.734;2024-02-21T00:59:48;95987.19;;;7.95;76.78
9521;BME280;4798;41.574;23.734;2024-02-21T01:02:18;95983.78;;;8.11;75.73
9521;BME280;4798;41.574;23.734;2024-02-21T01:04:47;95974.91;;;8.17;75.74
9521;BME280;4798;41.574;23.734;2024-02-21T01:07:17;95976.69;;;7.84;78.10
9521;BME280;4798;41.574;23.734;2024-02-21T01:09:45;95904.28;;;7.23;78.50
9521;BME280;4798;41.574;23.734;2024-02-21T01:12:14;95923.81;;;7.50;78.71
9521;BME280;4798;41.574;23.734;2024-02-21T01:14:42;95889.41;;;7.45;77.06
9521;BME280;4798;41.574;23.734;2024-02-21T01:17:13;95977.59;;;8.06;77.08
9521;BME280;4798;41.574;23.734;2024-02-21T01:19:41;95974.03;;;8.12;76.95
9521;BME280;4798;41.574;23.734;2024-02-21T01:22:10;95962.25;;;8.03;76.48
9521;BME280;4798;41.574;23.734;2024-02-21T01:24:40;95977.53;;;8.17;76.00
9521;BME280;4798;41.574;23.734;2024-02-21T01:27:09;95925.34;;;7.91;75.94
9521;BME280;4798;41.574;23.734;2024-02-21T01:29:38;95922.25;;;7.66;75.65
9521;BME280;4798;41.574;23.734;2024-02-21T01:32:07;95946.59;;;7.56;76.56
9521;BME280;4798;41.574;23.734;2024-02-21T01:34:35;95961.94;;;7.59;77.36
9521;BME280;4798;41.574;23.734;2024-02-21T01:37:04;95958.91;;;7.79;76.22
9521;BME280;4798;41.574;23.734;2024-02-21T01:39:34;95950.09;;;8.02;75.33
9521;BME280;4798;41.574;23.734;2024-02-21T01:42:04;95941.41;;;7.90;75.67
9521;BME280;4798;41.574;23.734;2024-02-21T01:44:33;95939.53;;;8.02;75.54
9521;BME280;4798;41.574;23.734;2024-02-21T01:47:01;95837.34;;;7.24;75.18
9521;BME280;4798;41.574;23.734;2024-02-21T01:49:31;95913.53;;;7.37;75.76
9521;BME280;4798;41.574;23.734;2024-02-21T01:52:00;95931.63;;;7.74;75.21
9521;BME280;4798;41.574;23.734;2024-02-21T01:54:31;95934.47;;;7.84;75.39
9521;BME280;4798;41.574;23.734;2024-02-21T01:57:04;95926.72;;;7.94;74.51
9521;BME280;4798;41.574;23.734;2024-02-21T01:59:33;95926.66;;;7.77;75.03
9521;BME280;4798;41.574;23.734;2024-02-21T02:02:03;95877.72;;;7.13;76.18
9521;BME280;4798;41.574;23.734;2024-02-21T02:04:31;95893.44;;;6.96;80.34
9521;BME280;4798;41.574;23.734;2024-02-21T02:07:02;95917.28;;;7.41;79.12
9521;BME280;4798;41.574;23.734;2024-02-21T02:09:32;95929.97;;;7.16;80.46
9521;BME280;4798;41.574;23.734;2024-02-21T02:12:02;95936.66;;;6.84;83.39
9521;BME280;4798;41.574;23.734;2024-02-21T02:14:33;95939.41;;;6.89;85.72
9521;BME280;4798;41.574;23.734;2024-02-21T02:17:01;95944.13;;;6.75;86.65
9521;BME280;4798;41.574;23.734;2024-02-21T02:19:30;95951.56;;;6.90;87.88
9521;BME280;4798;41.574;23.734;2024-02-21T02:22:06;95929.81;;;6.60;89.25
9521;BME280;4798;41.574;23.734;2024-02-21T02:24:39;95934.25;;;6.94;87.24
9521;BME280;4798;41.574;23.734;2024-02-21T02:27:08;95949.22;;;7.28;84.77
9521;BME280;4798;41.574;23.734;2024-02-21T02:29:37;95948.91;;;7.53;82.40
9521;BME280;4798;41.574;23.734;2024-02-21T02:32:06;95931.84;;;7.44;82.16
9521;BME280;4798;41.574;23.734;2024-02-21T02:34:34;95948.44;;;7.04;84.89
9521;BME280;4798;41.574;23.734;2024-02-21T02:37:03;95955.97;;;7.36;84.77
9521;BME280;4798;41.574;23.734;2024-02-21T02:39:32;95950.28;;;7.55;83.85
9521;BME280;4798;41.574;23.734;2024-02-21T02:42:02;95952.16;;;7.72;82.30
9521;BME280;4798;41.574;23.734;2024-02-21T02:44:31;95950.91;;;7.74;80.58
9521;BME280;4798;41.574;23.734;2024-02-21T02:46:59;95949.84;;;7.75;80.42
9521;BME280;4798;41.574;23.734;2024-02-21T02:49:28;95945.66;;;7.62;79.83
9521;BME280;4798;41.574;23.734;2024-02-21T02:51:57;95944.38;;;7.65;79.11
9521;BME280;4798;41.574;23.734;2024-02-21T02:54:25;95948.13;;;7.81;79.01
9521;BME280;4798;41.574;23.734;2024-02-21T02:56:55;95935.75;;;7.69;79.71
9521;BME280;4798;41.574;23.734;2024-02-21T02:59:25;95926.81;;;7.71;78.32
9521;BME280;4798;41.574;23.734;2024-02-21T03:01:53;95946.69;;;7.90;77.72
9521;BME280;4798;41.574;23.734;2024-02-21T03:04:22;95948.00;;;8.04;77.64
9521;BME280;4798;41.574;23.734;2024-02-21T03:06:51;95941.47;;;8.06;76.47
9521;BME280;4798;41.574;23.734;2024-02-21T03:09:19;95945.03;;;8.00;76.04
9521;BME280;4798;41.574;23.734;2024-02-21T03:11:48;95900.00;;;7.34;78.39
9521;BME280;4798;41.574;23.734;2024-02-21T03:14:16;95920.31;;;7.33;79.59
9521;BME280;4798;41.574;23.734;2024-02-21T03:16:46;95902.25;;;7.02;81.36
9521;BME280;4798;41.574;23.734;2024-02-21T03:19:15;95941.22;;;7.51;81.15
9521;BME280;4798;41.574;23.734;2024-02-21T03:21:45;95888.22;;;6.73;81.98
9521;BME280;4798;41.574;23.734;2024-02-21T03:24:13;95925.66;;;6.40;86.20
9521;BME280;4798;41.574;23.734;2024-02-21T03:26:42;95931.97;;;6.97;85.35
9521;BME280;4798;41.574;23.734;2024-02-21T03:29:11;95945.91;;;7.10;85.41
9521;BME280;4798;41.574;23.734;2024-02-21T03:31:40;95934.28;;;6.59;87.16
9521;BME280;4798;41.574;23.734;2024-02-21T03:34:11;95943.53;;;7.08;85.60
9521;BME280;4798;41.574;23.734;2024-02-21T03:36:40;95925.34;;;7.35;83.44
9521;BME280;4798;41.574;23.734;2024-02-21T03:39:09;95879.00;;;6.99;81.75
9521;BME280;4798;41.574;23.734;2024-02-21T03:41:37;95938.91;;;7.03;82.74
9521;BME280;4798;41.574;23.734;2024-02-21T03:44:06;95888.81;;;6.64;82.95
9521;BME280;4798;41.574;23.734;2024-02-21T03:46:34;95921.31;;;6.81;83.50
9521;BME280;4798;41.574;23.734;2024-02-21T03:49:03;95932.19;;;7.08;82.25
9521;BME280;4798;41.574;23.734;2024-02-21T03:51:33;95928.13;;;7.28;81.32
9521;BME280;4798;41.574;23.734;2024-02-21T03:54:02;95937.50;;;7.24;81.23
9521;BME280;4798;41.574;23.734;2024-02-21T03:56:31;95905.47;;;7.16;81.19
9521;BME280;4798;41.574;23.734;2024-02-21T03:58:59;95936.91;;;7.34;80.94
9521;BME280;4798;41.574;23.734;2024-02-21T04:01:28;95937.91;;;7.44;79.69
9521;BME280;4798;41.574;23.734;2024-02-21T04:03:57;95930.16;;;7.38;79.31
9521;BME280;4798;41.574;23.734;2024-02-21T04:06:26;95922.84;;;7.28;79.91
9521;BME280;4798;41.574;23.734;2024-02-21T04:08:56;95873.84;;;7.04;78.95
9521;BME280;4798;41.574;23.734;2024-02-21T04:11:25;95930.72;;;7.40;79.46
9521;BME280;4798;41.574;23.734;2024-02-21T04:13:54;95922.34;;;7.43;79.05
9521;BME280;4798;41.574;23.734;2024-02-21T04:16:22;95933.41;;;7.56;78.86
9521;BME280;4798;41.574;23.734;2024-02-21T04:18:51;95928.53;;;7.48;79.14
9521;BME280;4798;41.574;23.734;2024-02-21T04:21:20;95928.63;;;7.53;78.87
9521;BME280;4798;41.574;23.734;2024-02-21T04:23:48;95922.94;;;7.61;78.29
9521;BME280;4798;41.574;23.734;2024-02-21T04:26:18;95921.56;;;7.59;77.62
9521;BME280;4798;41.574;23.734;2024-02-21T04:28:47;95922.16;;;7.61;77.45
9521;BME280;4798;41.574;23.734;2024-02-21T04:31:16;95873.78;;;7.27;77.39
9521;BME280;4798;41.574;23.734;2024-02-21T04:33:44;95913.56;;;7.54;77.98
9521;BME280;4798;41.574;23.734;2024-02-21T04:36:13;95933.84;;;7.65;77.41
9521;BME280;4798;41.574;23.734;2024-02-21T04:38:42;95893.88;;;7.45;77.79
9521;BME280;4798;41.574;23.734;2024-02-21T04:41:10;95923.66;;;7.57;77.64
9521;BME280;4798;41.574;23.734;2024-02-21T04:43:40;95929.53;;;7.47;78.31
9521;BME280;4798;41.574;23.734;2024-02-21T04:46:09;95917.38;;;7.46;77.30
9521;BME280;4798;41.574;23.734;2024-02-21T04:48:38;95936.03;;;7.56;76.98
9521;BME280;4798;41.574;23.734;2024-02-21T04:51:06;95934.66;;;7.54;77.66
9521;BME280;4798;41.574;23.734;2024-02-21T04:53:35;95927.38;;;7.44;77.06
9521;BME280;4798;41.574;23.734;2024-02-21T04:56:04;95930.09;;;7.49;77.20
9521;BME280;4798;41.574;23.734;2024-02-21T04:58:37;95937.22;;;7.49;77.36
9521;BME280;4798;41.574;23.734;2024-02-21T05:01:08;95940.59;;;7.33;78.04
9521;BME280;4798;41.574;23.734;2024-02-21T05:03:36;95944.16;;;7.38;77.72
9521;BME280;4798;41.574;23.734;2024-02-21T05:06:06;95946.69;;;7.33;77.45
9521;BME280;4798;41.574;23.734;2024-02-21T05:08:36;95944.66;;;7.12;79.43
9521;BME280;4798;41.574;23.734;2024-02-21T05:11:04;95938.59;;;7.00;80.40
9521;BME280;4798;41.574;23.734;2024-02-21T05:13:33;95953.97;;;7.03;80.07
9521;BME280;4798;41.574;23.734;2024-02-21T05:16:02;95962.06;;;7.01;80.53
9521;BME280;4798;41.574;23.734;2024-02-21T05:18:33;95959.56;;;6.72;81.22
9521;BME280;4798;41.574;23.734;2024-02-21T05:21:01;95961.72;;;6.40;84.55
9521;BME280;4798;41.574;23.734;2024-02-21T05:23:30;95962.97;;;6.26;87.93
9521;BME280;4798;41.574;23.734;2024-02-21T05:25:58;95994.78;;;6.24;91.22
9521;BME280;4798;41.574;23.734;2024-02-21T05:28:27;95970.66;;;6.39;90.54
9521;BME280;4798;41.574;23.734;2024-02-21T05:30:56;95974.06;;;6.28;91.38
9521;BME280;4798;41.574;23.734;2024-02-21T05:33:25;95929.94;;;5.89;91.90
9521;BME280;4798;41.574;23.734;2024-02-21T05:35:55;95973.03;;;6.29;90.24
9521;BME280;4798;41.574;23.734;2024-02-21T05:38:24;95970.31;;;6.35;90.10
9521;BME280;4798;41.574;23.734;2024-02-21T05:40:53;95971.50;;;6.63;87.44
9521;BME280;4798;41.574;23.734;2024-02-21T05:43:21;95978.34;;;6.64;86.30
9521;BME280;4798;41.574;23.734;2024-02-21T05:45:50;95956.59;;;6.57;83.62
9521;BME280;4798;41.574;23.734;2024-02-21T05:48:19;95990.59;;;6.58;84.34
9521;BME280;4798;41.574;23.734;2024-02-21T05:50:48;95958.63;;;6.43;83.89
9521;BME280;4798;41.574;23.734;2024-02-21T05:53:18;95987.50;;;6.61;83.15
9521;BME280;4798;41.574;23.734;2024-02-21T05:55:46;95848.91;;;5.79;81.97
9521;BME280;4798;41.574;23.734;2024-02-21T05:58:15;95998.84;;;6.73;81.43
9521;BME280;4798;41.574;23.734;2024-02-21T06:00:44;95953.16;;;6.56;80.70
9521;BME280;4798;41.574;23.734;2024-02-21T06:03:12;96004.38;;;6.95;79.90
9521;BME280;4798;41.574;23.734;2024-02-21T06:05:41;96011.22;;;6.96;80.64
9521;BME280;4798;41.574;23.734;2024-02-21T06:08:10;96006.44;;;7.04;79.88
9521;BME280;4798;41.574;23.734;2024-02-21T06:10:40;96015.03;;;7.00;79.29
9521;BME280;4798;41.574;23.734;2024-02-21T06:13:09;96013.97;;;7.01;79.04
9521;BME280;4798;41.574;23.734;2024-02-21T06:15:38;96008.03;;;7.17;78.27
9521;BME280;4798;41.574;23.734;2024-02-21T06:18:06;95943.19;;;6.93;78.42
9521;BME280;4798;41.574;23.734;2024-02-21T06:20:35;96002.84;;;7.34;78.73
9521;BME280;4798;41.574;23.734;2024-02-21T06:23:06;96006.50;;;7.44;78.19
9521;BME280;4798;41.574;23.734;2024-02-21T06:25:35;96012.91;;;7.48;77.97
9521;BME280;4798;41.574;23.734;2024-02-21T06:28:05;96019.63;;;7.67;79.01
9521;BME280;4798;41.574;23.734;2024-02-21T06:30:34;96020.72;;;7.83;78.36
9521;BME280;4798;41.574;23.734;2024-02-21T06:33:03;96018.63;;;7.57;78.00
9521;BME280;4798;41.574;23.734;2024-02-21T06:35:31;95934.28;;;7.34;77.96
9521;BME280;4798;41.574;23.734;2024-02-21T06:38:00;96020.25;;;8.43;76.39
9521;BME280;4798;41.574;23.734;2024-02-21T06:40:29;96014.81;;;8.32;75.00
9521;BME280;4798;41.574;23.734;2024-02-21T06:43:06;96027.19;;;8.93;73.44
9521;BME280;4798;41.574;23.734;2024-02-21T06:45:35;96002.56;;;9.48;69.95
9521;BME280;4798;41.574;23.734;2024-02-21T06:48:04;96021.97;;;9.75;69.03
9521;BME280;4798;41.574;23.734;2024-02-21T06:50:33;96020.53;;;9.89;68.94
9521;BME280;4798;41.574;23.734;2024-02-21T06:53:02;96024.19;;;10.27;67.94
9521;BME280;4798;41.574;23.734;2024-02-21T06:55:30;96025.06;;;10.64;65.78
9521;BME280;4798;41.574;23.734;2024-02-21T06:57:59;96025.44;;;11.14;62.75
9521;BME280;4798;41.574;23.734;2024-02-21T07:00:30;96028.03;;;11.04;62.88
9521;BME280;4798;41.574;23.734;2024-02-21T07:02:59;96018.09;;;11.68;60.74
9521;BME280;4798;41.574;23.734;2024-02-21T07:05:27;96010.94;;;11.69;60.39
9521;BME280;4798;41.574;23.734;2024-02-21T07:07:56;95978.75;;;11.18;60.80
9521;BME280;4798;41.574;23.734;2024-02-21T07:10:25;96011.13;;;12.19;58.34
9521;BME280;4798;41.574;23.734;2024-02-21T07:12:55;95982.47;;;12.71;57.77
9521;BME280;4798;41.574;23.734;2024-02-21T07:15:23;96005.59;;;12.86;56.54
9521;BME280;4798;41.574;23.734;2024-02-21T07:17:55;96008.25;;;12.91;55.97
9521;BME280;4798;41.574;23.734;2024-02-21T07:20:24;96006.41;;;13.22;56.42
9521;BME280;4798;41.574;23.734;2024-02-21T07:22:52;95952.69;;;12.80;55.54
9521;BME280;4798;41.574;23.734;2024-02-21T07:25:21;95975.75;;;13.45;53.79
9521;BME280;4798;41.574;23.734;2024-02-21T07:27:49;95967.34;;;13.81;52.65
9521;BME280;4798;41.574;23.734;2024-02-21T07:30:18;95995.44;;;14.67;50.74
9521;BME280;4798;41.574;23.734;2024-02-21T07:32:49;95994.50;;;14.42;50.81
9521;BME280;4798;41.574;23.734;2024-02-21T07:35:19;96000.41;;;14.39;51.54
9521;BME280;4798;41.574;23.734;2024-02-21T07:37:48;96000.44;;;14.34;51.25
9521;BME280;4798;41.574;23.734;2024-02-21T07:40:17;95999.06;;;14.42;49.95
9521;BME280;4798;41.574;23.734;2024-02-21T07:42:46;95998.56;;;14.35;49.80
9521;BME280;4798;41.574;23.734;2024-02-21T07:45:18;96004.47;;;14.32;49.72
9521;BME280;4798;41.574;23.734;2024-02-21T07:47:49;95999.22;;;14.01;49.77
9521;BME280;4798;41.574;23.734;2024-02-21T07:50:19;96000.75;;;14.67;49.56
9521;BME280;4798;41.574;23.734;2024-02-21T07:52:48;95993.09;;;15.22;47.95
9521;BME280;4798;41.574;23.734;2024-02-21T07:55:16;95984.53;;;15.78;48.02
9521;BME280;4798;41.574;23.734;2024-02-21T07:57:45;95987.25;;;16.15;45.91
9521;BME280;4798;41.574;23.734;2024-02-21T08:00:14;96003.34;;;15.39;46.72
9521;BME280;4798;41.574;23.734;2024-02-21T08:02:48;95976.13;;;16.27;46.07
9521;BME280;4798;41.574;23.734;2024-02-21T08:05:18;95983.38;;;17.14;45.88
9521;BME280;4798;41.574;23.734;2024-02-21T08:07:48;95987.69;;;17.43;44.34
9521;BME280;4798;41.574;23.734;2024-02-21T08:10:17;95981.44;;;16.69;44.20
9521;BME280;4798;41.574;23.734;2024-02-21T08:12:46;95975.16;;;15.99;45.62
9521;BME280;4798;41.574;23.734;2024-02-21T08:15:14;95985.22;;;16.44;44.77
9521;BME280;4798;41.574;23.734;2024-02-21T08:17:43;95980.16;;;17.45;43.52
9521;BME280;4798;41.574;23.734;2024-02-21T08:20:11;95981.94;;;17.03;43.50
9521;BME280;4798;41.574;23.734;2024-02-21T08:22:41;95972.56;;;17.65;42.77
9521;BME280;4798;41.574;23.734;2024-02-21T08:25:10;95957.75;;;17.95;42.75
9521;BME280;4798;41.574;23.734;2024-02-21T08:27:39;95981.09;;;18.08;43.08
9521;BME280;4798;41.574;23.734;2024-02-21T08:30:08;95974.31;;;17.43;43.31
9521;BME280;4798;41.574;23.734;2024-02-21T08:32:37;95974.09;;;18.21;41.17
9521;BME280;4798;41.574;23.734;2024-02-21T08:35:06;95970.88;;;19.04;40.33
9521;BME280;4798;41.574;23.734;2024-02-21T08:37:35;95928.56;;;19.18;39.77
9521;BME280;4798;41.574;23.734;2024-02-21T08:40:06;95961.78;;;19.44;39.94
9521;BME280;4798;41.574;23.734;2024-02-21T08:42:36;95958.47;;;18.94;39.23
9521;BME280;4798;41.574;23.734;2024-02-21T08:45:08;95964.59;;;18.86;40.63
9521;BME280;4798;41.574;23.734;2024-02-21T08:47:39;95965.75;;;18.94;41.18
9521;BME280;4798;41.574;23.734;2024-02-21T08:50:09;95903.84;;;19.08;41.16
9521;BME280;4798;41.574;23.734;2024-02-21T08:52:53;95959.88;;;20.23;39.23
9521;BME280;4798;41.574;23.734;2024-02-21T08:55:23;95959.16;;;20.09;41.23
9521;BME280;4798;41.574;23.734;2024-02-21T08:57:52;95962.59;;;20.41;38.12
9521;BME280;4798;41.574;23.734;2024-02-21T09:00:21;95963.03;;;19.38;39.58
9521;BME280;4798;41.574;23.734;2024-02-21T09:02:54;95951.63;;;19.72;39.40
9521;BME280;4798;41.574;23.734;2024-02-21T09:05:24;95950.38;;;20.86;38.24
9521;BME280;4798;41.574;23.734;2024-02-21T09:07:53;95953.88;;;20.86;38.54
9521;BME280;4798;41.574;23.734;2024-02-21T09:10:23;95949.09;;;21.01;36.96
9521;BME280;4798;41.574;23.734;2024-02-21T09:12:52;95915.97;;;20.83;35.92
9521;BME280;4798;41.574;23.734;2024-02-21T09:15:21;95940.72;;;20.59;36.47
9521;BME280;4798;41.574;23.734;2024-02-21T09:17:51;95948.31;;;20.92;37.76
9521;BME280;4798;41.574;23.734;2024-02-21T09:20:20;95941.53;;;21.58;35.89
9521;BME280;4798;41.574;23.734;2024-02-21T09:22:48;95938.00;;;22.74;33.57
9521;BME280;4798;41.574;23.734;2024-02-21T09:25:17;95932.88;;;22.52;32.81
9521;BME280;4798;41.574;23.734;2024-02-21T09:27:48;95938.75;;;22.74;32.61
9521;BME280;4798;41.574;23.734;2024-02-21T09:30:16;95938.69;;;22.21;34.36
9521;BME280;4798;41.574;23.734;2024-02-21T09:32:46;95941.19;;;22.47;34.41
9521;BME280;4798;41.574;23.734;2024-02-21T09:35:15;95927.84;;;21.16;35.19
9521;BME280;4798;41.574;23.734;2024-02-21T09:37:43;95940.97;;;21.35;35.80
9521;BME280;4798;41.574;23.734;2024-02-21T09:40:15;95927.56;;;21.93;35.76
9521;BME280;4798;41.574;23.734;2024-02-21T09:42:48;95933.47;;;22.16;34.24
9521;BME280;4798;41.574;23.734;2024-02-21T09:45:20;95923.09;;;23.33;33.05
9521;BME280;4798;41.574;23.734;2024-02-21T09:47:58;95930.75;;;24.13;31.69
9521;BME280;4798;41.574;23.734;2024-02-21T09:50:32;95924.38;;;23.15;30.97
9521;BME280;4798;41.574;23.734;2024-02-21T09:53:04;95933.56;;;22.69;31.13
9521;BME280;4798;41.574;23.734;2024-02-21T09:55:36;95924.28;;;23.57;30.71
9521;BME280;4798;41.574;23.734;2024-02-21T09:58:10;95854.34;;;23.95;30.04
9521;BME280;4798;41.574;23.734;2024-02-21T10:00:39;95914.25;;;25.41;28.15
9521;BME280;4798;41.574;23.734;2024-02-21T10:03:08;95909.97;;;23.92;28.98
9521;BME280;4798;41.574;23.734;2024-02-21T10:05:37;95911.75;;;23.88;29.94
9521;BME280;4798;41.574;23.734;2024-02-21T10:08:06;95904.34;;;23.16;29.37
9521;BME280;4798;41.574;23.734;2024-02-21T10:10:43;95907.38;;;23.15;29.93
9521;BME280;4798;41.574;23.734;2024-02-21T10:13:24;95900.94;;;23.64;29.65
9521;BME280;4798;41.574;23.734;2024-02-21T10:16:03;95906.38;;;21.75;32.70
9521;BME280;4798;41.574;23.734;2024-02-21T10:18:32;95889.47;;;21.57;33.29
9521;BME280;4798;41.574;23.734;2024-02-21T10:21:03;95802.03;;;21.79;33.72
9521;BME280;4798;41.574;23.734;2024-02-21T10:23:42;95880.88;;;23.77;31.35
9521;BME280;4798;41.574;23.734;2024-02-21T10:26:11;95874.13;;;24.75;30.01
9521;BME280;4798;41.574;23.734;2024-02-21T10:28:41;95863.19;;;25.15;29.09
9521;BME280;4798;41.574;23.734;2024-02-21T10:31:21;95852.69;;;24.98;29.63
9521;BME280;4798;41.574;23.734;2024-02-21T10:33:54;95856.00;;;24.91;29.63
9521;BME280;4798;41.574;23.734;2024-02-21T10:36:24;95836.53;;;26.14;28.04
9521;BME280;4798;41.574;23.734;2024-02-21T10:38:53;95843.88;;;25.79;28.61
9521;BME280;4798;41.574;23.734;2024-02-21T10:41:23;95838.81;;;26.31;29.49
9521;BME280;4798;41.574;23.734;2024-02-21T10:43:53;95832.50;;;25.42;28.41
9521;BME280;4798;41.574;23.734;2024-02-21T10:46:23;95826.09;;;26.74;27.88
9521;BME280;4798;41.574;23.734;2024-02-21T10:49:01;95821.56;;;27.00;26.73
9521;BME280;4798;41.574;23.734;2024-02-21T10:51:34;95793.13;;;27.66;26.92
9521;BME280;4798;41.574;23.734;2024-02-21T10:54:17;95806.63;;;27.85;26.74
9521;BME280;4798;41.574;23.734;2024-02-21T10:56:51;95808.69;;;25.04;25.76
9521;BME280;4798;41.574;23.734;2024-02-21T10:59:22;95776.13;;;24.18;27.17
9521;BME280;4798;41.574;23.734;2024-02-21T11:01:51;95796.88;;;24.14;27.28
9521;BME280;4798;41.574;23.734;2024-02-21T11:04:25;95775.88;;;25.09;27.03
9521;BME280;4798;41.574;23.734;2024-02-21T11:06:55;95765.13;;;24.70;27.28
9521;BME280;4798;41.574;23.734;2024-02-21T11:09:30;95786.06;;;25.63;26.84
9521;BME280;4798;41.574;23.734;2024-02-21T11:12:02;95737.06;;;26.71;26.09
9521;BME280;4798;41.574;23.734;2024-02-21T11:14:33;95781.88;;;26.77;24.88
9521;BME280;4798;41.574;23.734;2024-02-21T11:17:14;95770.66;;;27.46;24.67
9521;BME280;4798;41.574;23.734;2024-02-21T11:19:43;95760.91;;;25.47;24.49
9521;BME280;4798;41.574;23.734;2024-02-21T11:22:16;95772.84;;;25.96;24.72
9521;BME280;4798;41.574;23.734;2024-02-21T11:24:45;95767.97;;;26.21;24.30
9521;BME280;4798;41.574;23.734;2024-02-21T11:27:15;95768.34;;;25.84;26.75
9521;BME280;4798;41.574;23.734;2024-02-21T11:29:48;95763.16;;;25.45;24.35
9521;BME280;4798;41.574;23.734;2024-02-21T11:32:19;95741.00;;;25.58;25.34
9521;BME280;4798;41.574;23.734;2024-02-21T11:34:55;95699.09;;;26.32;23.70
9521;BME280;4798;41.574;23.734;2024-02-21T11:37:30;95760.09;;;26.35;23.17
9521;BME280;4798;41.574;23.734;2024-02-21T11:40:01;95757.31;;;25.77;24.05
9521;BME280;4798;41.574;23.734;2024-02-21T11:42:31;95734.34;;;26.71;24.07
9521;BME280;4798;41.574;23.734;2024-02-21T11:45:01;95695.97;;;26.76;23.48
9521;BME280;4798;41.574;23.734;2024-02-21T11:47:30;95735.34;;;27.53;23.55
9521;BME280;4798;41.574;23.734;2024-02-21T11:49:58;95754.56;;;26.51;23.78
9521;BME280;4798;41.574;23.734;2024-02-21T11:52:27;95745.91;;;24.59;25.11
9521;BME280;4798;41.574;23.734;2024-02-21T11:54:56;95732.28;;;23.12;26.67
9521;BME280;4798;41.574;23.734;2024-02-21T11:57:33;95719.19;;;21.79;28.61
9521;BME280;4798;41.574;23.734;2024-02-21T12:00:13;95717.53;;;22.52;27.82
9521;BME280;4798;41.574;23.734;2024-02-21T12:02:42;95735.78;;;22.43;28.11
9521;BME280;4798;41.574;23.734;2024-02-21T12:05:11;95737.38;;;21.91;28.23
9521;BME280;4798;41.574;23.734;2024-02-21T12:07:40;95708.50;;;20.54;29.13
9521;BME280;4798;41.574;23.734;2024-02-21T12:10:10;95673.34;;;20.42;30.57
9521;BME280;4798;41.574;23.734;2024-02-21T12:12:39;95696.72;;;20.03;30.36
9521;BME280;4798;41.574;23.734;2024-02-21T12:15:08;95718.22;;;20.75;30.44
9521;BME280;4798;41.574;23.734;2024-02-21T12:17:39;95710.75;;;21.19;29.23
9521;BME280;4798;41.574;23.734;2024-02-21T12:20:08;95700.63;;;22.31;28.48
9521;BME280;4798;41.574;23.734;2024-02-21T12:22:41;95710.44;;;21.62;29.31
9521;BME280;4798;41.574;23.734;2024-02-21T12:25:16;95705.47;;;20.47;30.23
9521;BME280;4798;41.574;23.734;2024-02-21T12:27:46;95685.16;;;19.94;31.50
9521;BME280;4798;41.574;23.734;2024-02-21T12:30:16;95702.59;;;19.54;33.11
9521;BME280;4798;41.574;23.734;2024-02-21T12:32:47;95693.19;;;20.20;31.44
9521;BME280;4798;41.574;23.734;2024-02-21T12:35:16;95701.59;;;20.27;30.70
9521;BME280;4798;41.574;23.734;2024-02-21T12:37:45;95682.78;;;20.94;30.88
9521;BME280;4798;41.574;23.734;2024-02-21T12:40:13;95698.38;;;20.80;30.82
9521;BME280;4798;41.574;23.734;2024-02-21T12:42:43;95698.25;;;20.39;31.18
9521;BME280;4798;41.574;23.734;2024-02-21T12:45:12;95699.94;;;20.89;30.70
9521;BME280;4798;41.574;23.734;2024-02-21T12:47:43;95682.41;;;21.33;30.17
9521;BME280;4798;41.574;23.734;2024-02-21T12:50:13;95657.84;;;21.06;29.79
9521;BME280;4798;41.574;23.734;2024-02-21T12:52:42;95694.91;;;20.79;30.59
9521;BME280;4798;41.574;23.734;2024-02-21T12:55:11;95689.31;;;22.05;29.14
9521;BME280;4798;41.574;23.734;2024-02-21T12:57:40;95691.34;;;21.46;29.58
9521;BME280;4798;41.574;23.734;2024-02-21T13:00:10;95679.16;;;20.61;30.27
9521;BME280;4798;41.574;23.734;2024-02-21T13:02:38;95684.44;;;21.78;29.71
9521;BME280;4798;41.574;23.734;2024-02-21T13:05:07;95668.78;;;22.37;28.94
9521;BME280;4798;41.574;23.734;2024-02-21T13:07:37;95632.97;;;21.83;28.80
9521;BME280;4798;41.574;23.734;2024-02-21T13:10:07;95666.91;;;21.84;28.81
9521;BME280;4798;41.574;23.734;2024-02-21T13:12:36;95665.66;;;22.02;29.17
9521;BME280;4798;41.574;23.734;2024-02-21T13:15:06;95665.00;;;23.22;27.42
9521;BME280;4798;41.574;23.734;2024-02-21T13:17:36;95662.94;;;22.47;27.51
9521;BME280;4798;41.574;23.734;2024-02-21T13:20:06;95666.09;;;21.92;28.42
9521;BME280;4798;41.574;23.734;2024-02-21T13:22:37;95657.69;;;22.62;27.64
9521;BME280;4798;41.574;23.734;2024-02-21T13:25:06;95648.25;;;22.81;28.18
9521;BME280;4798;41.574;23.734;2024-02-21T13:27:35;95652.06;;;22.80;27.73
9521;BME280;4798;41.574;23.734;2024-02-21T13:30:05;95644.53;;;22.85;26.97